createdAt,value
2023-01-02T00:01:14.905Z,96568.91
2023-01-02T00:03:42.860Z,96586.16
2023-01-02T00:06:10.958Z,96614.66
2023-01-02T00:08:39.396Z,96628.81
2023-01-02T00:11:07.401Z,96664.41
2023-01-02T00:13:35.274Z,96680.19
2023-01-02T00:16:03.154Z,96705.16
2023-01-02T00:18:32.504Z,96724.31
2023-01-02T00:21:04.221Z,96750.72
2023-01-02T00:23:32.562Z,96739.69
2023-01-02T00:26:01.207Z,96768.00
2023-01-02T00:28:29.248Z,96778.44
2023-01-02T00:30:57.486Z,96811.31
2023-01-02T00:33:25.826Z,96844.81
2023-01-02T00:35:55.495Z,96869.78
2023-01-02T00:38:23.495Z,96898.09
2023-01-02T00:40:51.368Z,96922.84
2023-01-02T00:43:19.255Z,96921.00
2023-01-02T00:45:48.837Z,96943.66
2023-01-02T00:48:16.711Z,96941.59
2023-01-02T00:50:45.387Z,96952.44
2023-01-02T00:53:14.825Z,96964.06
2023-01-02T00:55:44.697Z,96967.00
2023-01-02T00:58:12.571Z,96969.47
2023-01-02T01:00:41.021Z,96977.81
2023-01-02T01:03:08.962Z,96978.06
2023-01-02T01:05:40.287Z,96989.47
2023-01-02T01:08:08.253Z,96990.28
2023-01-02T01:10:38.844Z,96994.84
2023-01-02T01:13:07.300Z,97005.63
2023-01-02T01:15:35.719Z,96993.97
2023-01-02T01:18:03.732Z,97011.53
2023-01-02T01:20:31.701Z,96988.34
2023-01-02T01:22:59.624Z,96993.41
2023-01-02T01:25:27.427Z,96915.66
2023-01-02T01:27:56.839Z,96893.16
2023-01-02T01:30:24.616Z,96873.94
2023-01-02T01:32:52.485Z,96814.53
2023-01-02T01:35:20.430Z,96778.09
2023-01-02T01:37:48.345Z,96773.72
2023-01-02T01:40:16.427Z,96732.53
2023-01-02T01:42:44.372Z,96722.31
2023-01-02T01:45:16.810Z,96699.63
2023-01-02T01:47:48.563Z,96661.41
2023-01-02T01:50:21.315Z,96653.66
2023-01-02T01:52:53.745Z,96627.31
2023-01-02T01:55:25.203Z,96624.59
2023-01-02T01:57:57.394Z,96610.44
2023-01-02T02:00:26.775Z,96612.13
2023-01-02T02:02:58.486Z,96615.19
2023-01-02T02:05:30.507Z,96613.72
2023-01-02T02:08:05.718Z,96616.00
2023-01-02T02:10:33.712Z,96601.91
2023-01-02T02:13:01.665Z,96622.06
2023-01-02T02:15:41.038Z,96624.09
2023-01-02T02:18:22.543Z,96632.22
2023-01-02T02:20:58.843Z,96625.97
2023-01-02T02:24:03.040Z,96620.59
2023-01-02T02:27:00.000Z,96611.06
2023-01-02T02:30:00.629Z,96622.84
2023-01-02T02:32:36.946Z,96627.25
2023-01-02T02:35:14.494Z,96634.34
2023-01-02T02:37:49.866Z,96654.25
2023-01-02T02:40:26.174Z,96661.38
2023-01-02T02:43:03.844Z,96657.38
2023-01-02T02:45:46.880Z,96645.16
2023-01-02T02:48:21.288Z,96655.50
2023-01-02T02:50:56.671Z,96655.25
2023-01-02T02:53:27.270Z,96650.94
2023-01-02T02:55:58.616Z,96669.56
2023-01-02T02:58:28.310Z,96698.88
2023-01-02T03:01:03.655Z,96728.59
2023-01-02T03:03:33.042Z,96731.91
2023-01-02T03:06:10.211Z,96722.75
2023-01-02T03:08:43.809Z,96733.78
2023-01-02T03:11:13.070Z,96745.81
2023-01-02T03:13:48.241Z,96749.88
2023-01-02T03:16:24.043Z,96753.09
2023-01-02T03:18:58.434Z,96765.59
2023-01-02T03:21:35.179Z,96773.47
2023-01-02T03:24:07.406Z,96777.66
2023-01-02T03:26:37.603Z,96803.59
2023-01-02T03:29:09.988Z,96798.16
2023-01-02T03:31:40.836Z,96808.75
2023-01-02T03:34:13.732Z,96821.50
2023-01-02T03:36:44.044Z,96818.38
2023-01-02T03:39:16.866Z,96837.44
2023-01-02T03:41:51.338Z,96830.31
2023-01-02T03:44:23.683Z,96835.84
2023-01-02T03:46:55.244Z,96829.97
2023-01-02T03:49:31.694Z,96864.78
2023-01-02T03:51:59.974Z,96874.28
2023-01-02T03:54:29.922Z,96865.72
2023-01-02T03:57:00.697Z,96870.56
2023-01-02T03:59:37.669Z,96870.16
2023-01-02T04:02:11.655Z,96910.81
2023-01-02T04:04:50.949Z,96931.63
2023-01-02T04:07:27.214Z,96925.44
2023-01-02T04:09:56.502Z,96923.72
2023-01-02T04:12:26.724Z,96942.94
2023-01-02T04:15:00.528Z,96957.34
2023-01-02T04:17:32.897Z,96967.63
2023-01-02T04:20:06.552Z,96988.84
2023-01-02T04:22:38.175Z,96995.13
2023-01-02T04:25:11.071Z,97007.72
2023-01-02T04:27:44.417Z,97017.88
2023-01-02T04:30:12.776Z,97018.16
2023-01-02T04:32:43.224Z,97014.63
2023-01-02T04:35:16.739Z,97004.88
2023-01-02T04:37:45.773Z,96985.25
2023-01-02T04:40:18.434Z,96934.88
2023-01-02T04:42:46.713Z,96871.22
2023-01-02T04:45:15.138Z,96849.84
2023-01-02T04:47:43.072Z,96802.75
2023-01-02T04:50:12.483Z,96755.00
2023-01-02T04:52:40.497Z,96708.06
2023-01-02T04:55:10.070Z,96885.88
2023-01-02T04:57:38.499Z,96885.56
2023-01-02T05:00:08.896Z,96870.75
2023-01-02T05:02:37.903Z,96849.97
2023-01-02T05:05:06.942Z,96827.75
2023-01-02T05:07:36.889Z,96795.97
2023-01-02T05:10:05.005Z,96776.66
2023-01-02T05:12:35.094Z,96760.91
2023-01-02T05:15:08.075Z,96748.88
2023-01-02T05:17:36.541Z,96737.88
2023-01-02T05:20:06.094Z,96713.75
2023-01-02T05:22:51.283Z,96707.34
2023-01-02T05:25:21.181Z,96692.63
2023-01-02T05:27:49.060Z,96680.97
2023-01-02T05:30:17.212Z,96661.88
2023-01-02T05:32:45.170Z,96672.25
2023-01-02T05:35:13.020Z,96675.59
2023-01-02T05:37:40.931Z,96664.78
2023-01-02T05:40:10.375Z,96671.03
2023-01-02T05:42:39.696Z,96671.84
2023-01-02T05:45:08.840Z,96672.69
2023-01-02T05:47:36.899Z,96663.13
2023-01-02T05:50:05.479Z,96667.50
2023-01-02T05:52:33.584Z,96675.19
2023-01-02T05:55:02.182Z,96683.09
2023-01-02T05:57:30.048Z,96689.31
2023-01-02T05:59:59.365Z,96693.50
2023-01-02T06:02:27.255Z,96696.44
2023-01-02T06:04:55.174Z,96712.00
2023-01-02T06:07:23.063Z,96721.34
2023-01-02T06:09:50.958Z,96743.19
2023-01-02T06:12:18.731Z,96752.53
2023-01-02T06:14:46.808Z,96768.94
2023-01-02T06:17:16.009Z,96772.03
2023-01-02T06:19:47.303Z,96788.88
2023-01-02T06:22:20.320Z,96799.88
2023-01-02T06:24:48.235Z,96801.53
2023-01-02T06:27:16.274Z,96816.91
2023-01-02T06:29:44.248Z,96826.44
2023-01-02T06:32:12.392Z,96824.19
2023-01-02T06:34:41.797Z,96833.75
2023-01-02T06:37:10.383Z,96844.09
2023-01-02T06:39:38.465Z,96857.59
2023-01-02T06:42:06.650Z,96867.56
2023-01-02T06:44:34.694Z,96872.81
2023-01-02T06:47:02.577Z,96877.53
2023-01-02T06:49:30.362Z,96879.22
2023-01-02T06:51:59.756Z,96901.59
2023-01-02T06:54:28.281Z,96905.34
2023-01-02T06:56:56.079Z,96914.28
2023-01-02T06:59:24.112Z,96905.41
2023-01-02T07:01:52.036Z,96918.22
2023-01-02T07:04:20.002Z,96943.13
2023-01-02T07:06:47.951Z,96951.78
2023-01-02T07:09:17.373Z,96953.47
2023-01-02T07:11:45.347Z,96946.50
2023-01-02T07:14:13.460Z,96967.63
2023-01-02T07:16:41.429Z,96978.16
2023-01-02T07:19:09.794Z,96982.00
2023-01-02T07:21:37.739Z,96995.06
2023-01-02T07:24:06.289Z,97002.97
2023-01-02T07:26:35.928Z,96997.78
2023-01-02T07:29:03.847Z,96985.16
2023-01-02T07:31:31.878Z,96983.44
2023-01-02T07:33:59.810Z,96990.56
2023-01-02T07:36:27.803Z,96995.13
2023-01-02T07:38:57.343Z,97009.44
2023-01-02T07:41:27.184Z,97020.22
2023-01-02T07:43:56.729Z,97027.94
2023-01-02T07:46:25.298Z,97039.97
2023-01-02T07:48:53.227Z,97045.81
2023-01-02T07:51:27.085Z,97050.78
2023-01-02T07:53:56.635Z,97052.88
2023-01-02T07:56:24.677Z,97073.09
2023-01-02T07:58:53.082Z,97096.72
2023-01-02T08:01:22.613Z,97106.31
2023-01-02T08:03:50.876Z,97108.75
2023-01-02T08:06:19.909Z,97129.72
2023-01-02T08:08:48.670Z,97153.19
2023-01-02T08:11:19.697Z,97164.00
2023-01-02T08:13:48.467Z,97182.03
2023-01-02T08:16:18.811Z,97185.84
2023-01-02T08:18:51.264Z,97187.44
2023-01-02T08:21:19.230Z,97204.09
2023-01-02T08:23:47.268Z,97204.28
2023-01-02T08:26:15.178Z,97237.91
2023-01-02T08:28:43.517Z,97247.16
2023-01-02T08:31:12.931Z,97269.59
2023-01-02T08:33:41.429Z,97292.31
2023-01-02T08:36:11.338Z,97310.66
2023-01-02T08:38:39.472Z,97310.47
2023-01-02T08:41:07.731Z,97332.38
2023-01-02T08:43:37.119Z,97324.63
2023-01-02T08:46:06.668Z,97355.44
2023-01-02T08:48:34.840Z,97380.13
2023-01-02T08:51:03.216Z,97403.91
2023-01-02T08:53:32.657Z,97412.50
2023-01-02T08:56:21.273Z,97395.84
2023-01-02T08:58:56.265Z,97384.94
2023-01-02T09:01:25.818Z,97356.03
2023-01-02T09:03:54.782Z,97349.69
2023-01-02T09:06:24.736Z,97340.25
2023-01-02T09:08:55.469Z,97351.78
2023-01-02T09:11:25.957Z,97375.47
2023-01-02T09:13:54.569Z,97397.19
2023-01-02T09:16:23.317Z,97430.16
2023-01-02T09:18:51.946Z,97438.31
2023-01-02T09:21:20.078Z,97455.81
2023-01-02T09:23:48.117Z,97439.63
2023-01-02T09:26:18.223Z,97433.50
2023-01-02T09:28:46.882Z,97421.53
2023-01-02T09:31:16.898Z,97429.28
2023-01-02T09:33:46.499Z,97429.28
2023-01-02T09:36:16.452Z,97408.91
2023-01-02T09:38:44.717Z,97401.47
2023-01-02T09:41:33.597Z,97402.50
2023-01-02T09:44:04.769Z,97407.59
2023-01-02T09:46:39.732Z,97408.06
2023-01-02T09:49:12.587Z,97413.56
2023-01-02T09:51:40.839Z,97414.28
2023-01-02T09:54:18.313Z,97434.16
2023-01-02T09:56:53.124Z,97441.28
2023-01-02T09:59:28.922Z,97467.56
2023-01-02T10:02:10.894Z,97465.13
2023-01-02T10:04:55.232Z,97480.84
2023-01-02T10:07:31.821Z,97478.75
2023-01-02T10:10:08.358Z,97484.56
2023-01-02T10:12:47.751Z,97475.91
2023-01-02T10:15:21.210Z,97467.25
2023-01-02T10:17:54.109Z,97471.19
2023-01-02T10:20:28.202Z,97460.25
2023-01-02T10:23:01.396Z,97455.34
2023-01-02T10:25:33.888Z,97459.09
2023-01-02T10:28:24.779Z,97462.44
2023-01-02T10:30:56.967Z,97443.84
2023-01-02T10:33:31.360Z,97447.78
2023-01-02T10:36:02.697Z,97424.97
2023-01-02T10:38:37.431Z,97420.06
2023-01-02T10:41:06.315Z,97409.88
2023-01-02T10:43:37.117Z,97416.25
2023-01-02T10:46:05.900Z,97418.13
2023-01-02T10:48:37.299Z,97405.78
2023-01-02T10:51:11.005Z,97418.25
2023-01-02T10:53:39.261Z,97431.19
2023-01-02T10:56:09.471Z,97409.28
2023-01-02T10:58:47.256Z,97406.09
2023-01-02T11:01:19.249Z,97397.06
2023-01-02T11:03:48.436Z,97388.31
2023-01-02T11:06:35.241Z,97382.41
2023-01-02T11:09:20.187Z,97378.09
2023-01-02T11:11:53.607Z,97387.06
2023-01-02T11:14:30.920Z,97404.81
2023-01-02T11:17:08.305Z,97385.41
2023-01-02T11:19:44.721Z,97389.78
2023-01-02T11:22:15.555Z,97405.00
2023-01-02T11:25:00.003Z,97421.19
2023-01-02T11:27:31.835Z,97423.59
2023-01-02T11:30:02.770Z,97414.03
2023-01-02T11:32:41.197Z,97429.25
2023-01-02T11:35:33.390Z,97445.31
2023-01-02T11:38:03.376Z,97454.53
2023-01-02T11:40:33.601Z,97463.63
2023-01-02T11:43:25.536Z,97458.75
2023-01-02T11:45:56.078Z,97426.34
2023-01-02T11:48:25.947Z,97434.63
2023-01-02T11:50:54.641Z,97418.16
2023-01-02T11:53:28.710Z,97431.00
2023-01-02T11:56:03.729Z,97433.66
2023-01-02T11:58:40.123Z,97434.94
2023-01-02T12:01:20.166Z,97423.56
2023-01-02T12:03:48.914Z,97434.34
2023-01-02T12:06:21.288Z,97450.22
2023-01-02T12:09:04.896Z,97453.63
2023-01-02T12:11:52.316Z,97445.22
2023-01-02T12:14:23.277Z,97455.50
2023-01-02T12:17:00.237Z,97460.59
2023-01-02T12:20:06.089Z,97464.19
2023-01-02T12:22:58.908Z,97467.84
2023-01-02T12:25:54.861Z,97480.03
2023-01-02T12:28:39.096Z,97496.53
2023-01-02T12:31:24.749Z,97506.81
2023-01-02T12:34:07.952Z,97508.50
2023-01-02T12:36:58.443Z,97519.88
2023-01-02T12:40:04.769Z,97539.56
2023-01-02T12:42:54.662Z,97543.25
2023-01-02T12:45:33.867Z,97581.38
2023-01-02T12:48:21.245Z,97587.00
2023-01-02T12:51:03.973Z,97589.31
2023-01-02T12:54:18.985Z,97597.41
2023-01-02T12:56:44.408Z,97607.16
2023-01-02T12:59:34.190Z,97612.91
2023-01-02T13:02:09.542Z,97626.56
2023-01-02T13:04:45.358Z,97629.47
2023-01-02T13:07:19.382Z,97629.94
2023-01-02T13:09:48.401Z,97645.13
2023-01-02T13:12:18.395Z,97650.84
2023-01-02T13:14:51.988Z,97654.88
2023-01-02T13:17:35.865Z,97678.84
2023-01-02T13:20:12.579Z,97681.00
2023-01-02T13:22:55.053Z,97680.47
2023-01-02T13:25:25.085Z,97687.59
2023-01-02T13:27:55.858Z,97683.69
2023-01-02T13:30:45.645Z,97686.91
2023-01-02T13:33:23.047Z,97692.63
2023-01-02T13:35:52.079Z,97703.41
2023-01-02T13:38:26.459Z,97701.56
2023-01-02T13:40:57.745Z,97699.03
2023-01-02T13:43:29.879Z,97708.31
2023-01-02T13:45:59.361Z,97715.06
2023-01-02T13:48:34.640Z,97738.00
2023-01-02T13:51:04.975Z,97751.47
2023-01-02T13:53:39.631Z,97775.09
2023-01-02T13:56:12.557Z,97772.88
2023-01-02T13:58:45.831Z,97777.78
2023-01-02T14:01:42.956Z,97800.53
2023-01-02T14:04:32.104Z,97818.38
2023-01-02T14:07:39.988Z,97849.88
2023-01-02T14:10:34.777Z,97843.66
2023-01-02T14:13:13.325Z,97858.31
2023-01-02T14:16:23.000Z,97864.19
2023-01-02T14:19:06.437Z,97886.94
2023-01-02T14:21:37.557Z,97892.19
2023-01-02T14:24:17.379Z,97894.75
2023-01-02T14:26:53.977Z,97914.94
2023-01-02T14:29:23.951Z,97932.94
2023-01-02T14:32:01.252Z,97940.97
2023-01-02T14:34:30.238Z,97940.56
2023-01-02T14:37:01.507Z,97966.28
2023-01-02T14:39:33.999Z,97958.19
2023-01-02T14:42:31.686Z,97999.47
2023-01-02T14:45:04.564Z,97994.72
2023-01-02T14:47:39.836Z,98011.06
2023-01-02T14:50:15.771Z,98015.56
2023-01-02T14:52:49.422Z,98011.53
2023-01-02T14:55:23.813Z,98043.03
2023-01-02T14:57:55.629Z,98055.19
2023-01-02T15:00:29.976Z,98069.34
2023-01-02T15:03:10.369Z,98087.06
2023-01-02T15:05:48.123Z,98085.41
2023-01-02T15:08:18.986Z,98074.47
2023-01-02T15:11:20.078Z,98077.25
2023-01-02T15:14:04.204Z,98072.72
2023-01-02T15:16:46.349Z,98066.16
2023-01-02T15:19:21.437Z,98061.41
2023-01-02T15:21:49.783Z,98076.41
2023-01-02T15:24:21.779Z,98068.84
2023-01-02T15:26:50.847Z,98060.28
2023-01-02T15:29:26.371Z,98061.09
2023-01-02T15:31:57.009Z,98061.84
2023-01-02T15:34:28.172Z,98061.31
2023-01-02T15:36:58.650Z,98076.94
2023-01-02T15:39:34.324Z,98081.00
2023-01-02T15:42:10.062Z,98091.44
2023-01-02T15:44:58.483Z,98098.28
2023-01-02T15:47:28.418Z,98102.59
2023-01-02T15:49:58.969Z,98097.44
2023-01-02T15:52:31.396Z,98096.75
2023-01-02T15:55:00.825Z,98080.66
2023-01-02T15:57:32.013Z,98068.63
2023-01-02T16:00:02.162Z,98068.84
2023-01-02T16:02:46.375Z,98077.56
2023-01-02T16:05:17.313Z,98080.72
2023-01-02T16:07:51.808Z,98087.75
2023-01-02T16:10:23.709Z,98094.06
2023-01-02T16:12:55.776Z,98083.63
2023-01-02T16:15:29.909Z,98095.75
2023-01-02T16:17:59.398Z,98097.34
2023-01-02T16:20:29.327Z,98090.50
2023-01-02T16:23:00.562Z,98086.88
2023-01-02T16:25:31.164Z,98071.50
2023-01-02T16:28:03.102Z,98085.72
2023-01-02T16:30:39.173Z,98090.97
2023-01-02T16:33:23.003Z,98092.47
2023-01-02T16:36:00.321Z,98087.78
2023-01-02T16:38:29.619Z,98096.25
2023-01-02T16:41:04.777Z,98107.56
2023-01-02T16:43:41.243Z,98134.53
2023-01-02T16:46:18.729Z,98141.66
2023-01-02T16:48:47.959Z,98146.53
2023-01-02T16:51:17.739Z,98140.09
2023-01-02T16:53:46.831Z,98146.53
2023-01-02T16:56:16.139Z,98144.53
2023-01-02T16:58:44.547Z,98132.50
2023-01-02T17:01:16.230Z,98117.22
2023-01-02T17:03:45.753Z,98116.94
2023-01-02T17:06:15.276Z,98123.56
2023-01-02T17:08:44.558Z,98116.22
2023-01-02T17:11:16.611Z,98112.69
2023-01-02T17:13:44.863Z,98120.56
2023-01-02T17:16:14.774Z,98150.69
2023-01-02T17:18:43.182Z,98154.16
2023-01-02T17:21:11.820Z,98167.09
2023-01-02T17:23:39.971Z,98172.63
2023-01-02T17:26:07.937Z,98167.53
2023-01-02T17:28:36.814Z,98180.59
2023-01-02T17:31:05.360Z,98198.31
2023-01-02T17:33:35.589Z,98191.63
2023-01-02T17:36:07.538Z,98213.22
2023-01-02T17:38:35.974Z,98230.63
2023-01-02T17:41:04.069Z,98227.47
2023-01-02T17:43:33.690Z,98218.22
2023-01-02T17:46:30.416Z,98234.44
2023-01-02T17:48:56.018Z,98242.91
2023-01-02T17:51:24.002Z,98264.03
2023-01-02T17:53:54.970Z,98269.13
2023-01-02T17:56:24.489Z,98293.78
2023-01-02T17:58:52.561Z,98299.00
2023-01-02T18:01:22.014Z,98311.19
2023-01-02T18:03:50.156Z,98304.81
2023-01-02T18:06:20.528Z,98302.94
2023-01-02T18:08:49.053Z,98319.38
2023-01-02T18:11:17.973Z,98314.56
2023-01-02T18:13:49.093Z,98312.88
2023-01-02T18:16:21.121Z,98300.41
2023-01-02T18:18:51.410Z,98313.16
2023-01-02T18:21:23.265Z,98328.44
2023-01-02T18:23:57.430Z,98342.31
2023-01-02T18:26:26.797Z,98327.00
2023-01-02T18:28:57.391Z,98333.25
2023-01-02T18:31:26.752Z,98333.81
2023-01-02T18:34:00.187Z,98350.22
2023-01-02T18:36:30.002Z,98346.84
2023-01-02T18:39:08.234Z,98343.72
2023-01-02T18:41:39.860Z,98350.22
2023-01-02T18:44:17.871Z,98341.75
2023-01-02T18:47:01.876Z,98331.84
2023-01-02T18:49:41.046Z,98328.44
2023-01-02T18:52:25.801Z,98323.34
2023-01-02T18:55:00.091Z,98316.00
2023-01-02T18:57:32.427Z,98324.91
2023-01-02T19:00:04.849Z,98338.22
2023-01-02T19:02:40.716Z,98335.78
2023-01-02T19:05:20.545Z,98344.28
2023-01-02T19:07:50.087Z,98344.97
2023-01-02T19:10:37.066Z,98336.66
2023-01-02T19:13:08.521Z,98330.84
2023-01-02T19:15:43.141Z,98329.84
2023-01-02T19:18:35.379Z,98336.66
2023-01-02T19:21:19.712Z,98344.56
2023-01-02T19:23:54.003Z,98331.53
2023-01-02T19:26:30.647Z,98341.16
2023-01-02T19:29:01.172Z,98339.59
2023-01-02T19:31:38.167Z,98339.88
2023-01-02T19:34:24.989Z,98346.25
2023-01-02T19:37:00.113Z,98359.28
2023-01-02T19:39:34.651Z,98367.91
2023-01-02T19:42:20.818Z,98373.72
2023-01-02T19:44:49.768Z,98382.22
2023-01-02T19:47:18.081Z,98386.75
2023-01-02T19:49:46.252Z,98397.53
2023-01-02T19:52:16.360Z,98403.03
2023-01-02T19:54:46.697Z,98426.38
2023-01-02T19:57:17.597Z,98436.44
2023-01-02T19:59:46.749Z,98438.84
2023-01-02T20:02:17.312Z,98444.94
2023-01-02T20:04:46.018Z,98449.63
2023-01-02T20:07:14.064Z,98449.63
2023-01-02T20:09:42.152Z,98455.56
2023-01-02T20:12:28.947Z,98446.47
2023-01-02T20:14:57.313Z,98439.28
2023-01-02T20:17:25.406Z,98443.09
2023-01-02T20:19:53.296Z,98446.06
2023-01-02T20:22:21.427Z,98437.41
2023-01-02T20:24:49.519Z,98442.25
2023-01-02T20:27:20.575Z,98458.41
2023-01-02T20:29:48.768Z,98446.06
2023-01-02T20:32:16.906Z,98456.41
2023-01-02T20:34:45.366Z,98461.78
2023-01-02T20:37:13.344Z,98475.94
2023-01-02T20:39:41.356Z,98484.69
2023-01-02T20:42:13.503Z,98484.00
2023-01-02T20:44:43.722Z,98496.72
2023-01-02T20:47:13.139Z,98510.28
2023-01-02T20:49:41.548Z,98517.34
2023-01-02T20:52:10.055Z,98513.00
2023-01-02T20:54:38.290Z,98509.63
2023-01-02T20:57:06.421Z,98509.88
2023-01-02T20:59:34.532Z,98525.13
2023-01-02T21:02:04.069Z,98532.91
2023-01-02T21:04:36.719Z,98548.16
2023-01-02T21:07:05.562Z,98537.00
2023-01-02T21:09:33.933Z,98539.31
2023-01-02T21:12:02.223Z,98551.06
2023-01-02T21:14:37.132Z,98549.66
2023-01-02T21:17:07.263Z,98534.78
2023-01-02T21:19:35.280Z,98546.97
2023-01-02T21:22:03.285Z,98557.16
2023-01-02T21:24:31.273Z,98569.56
2023-01-02T21:26:59.225Z,98578.59
2023-01-02T21:29:27.412Z,98582.69
2023-01-02T21:31:55.467Z,98586.44
2023-01-02T21:34:24.985Z,98588.88
2023-01-02T21:36:53.004Z,98601.13
2023-01-02T21:39:23.391Z,98599.47
2023-01-02T21:42:09.932Z,98614.31
2023-01-02T21:44:38.044Z,98610.63
2023-01-02T21:47:06.104Z,98617.53
2023-01-02T21:49:35.601Z,98609.91
2023-01-02T21:52:03.606Z,98615.28
2023-01-02T21:54:31.694Z,98617.88
2023-01-02T21:56:59.731Z,98613.06
2023-01-02T21:59:28.006Z,98627.06
2023-01-02T22:01:57.610Z,98629.91
2023-01-02T22:04:25.781Z,98635.53
2023-01-02T22:09:43.158Z,98650.06
2023-01-02T22:12:11.113Z,98636.78
2023-01-02T22:14:39.961Z,98645.50
2023-01-02T22:17:10.375Z,98654.13
2023-01-02T22:19:39.312Z,98674.78
2023-01-02T22:22:09.039Z,98676.00
2023-01-02T22:24:44.069Z,98684.06
2023-01-02T22:27:14.809Z,98693.13
2023-01-02T22:30:19.020Z,98694.81
2023-01-02T22:32:33.696Z,98693.22
2023-01-02T22:35:03.652Z,98704.41
2023-01-02T22:37:33.291Z,98702.28
2023-01-02T22:40:02.194Z,98694.81
2023-01-02T22:43:07.443Z,98689.00
2023-01-02T22:45:38.873Z,98706.84
2023-01-02T22:48:15.242Z,98696.97
2023-01-02T22:50:44.888Z,98704.41
2023-01-02T22:53:23.517Z,98730.56
2023-01-02T22:55:51.814Z,98734.47
2023-01-02T22:58:20.578Z,98731.75
2023-01-02T23:01:00.314Z,98743.25
2023-01-02T23:03:29.667Z,98733.47
2023-01-02T23:05:58.041Z,98738.25
2023-01-02T23:08:28.255Z,98720.00
2023-01-02T23:10:56.401Z,98712.66
2023-01-02T23:13:24.546Z,98725.38
2023-01-02T23:16:10.338Z,98728.88
2023-01-02T23:18:57.125Z,98732.44
2023-01-02T23:21:26.538Z,98724.31
2023-01-02T23:23:56.258Z,98733.19
2023-01-02T23:26:26.939Z,98746.41
2023-01-02T23:29:06.639Z,98757.41
2023-01-02T23:31:36.025Z,98755.47
2023-01-02T23:34:04.134Z,98751.19
2023-01-02T23:36:33.522Z,98758.41
2023-01-02T23:39:04.939Z,98765.50
2023-01-02T23:41:33.393Z,98752.31
2023-01-02T23:44:01.535Z,98750.25
2023-01-02T23:46:30.486Z,98761.97
2023-01-02T23:48:58.628Z,98750.03
2023-01-02T23:51:27.123Z,98732.75
2023-01-02T23:53:55.255Z,98739.28
2023-01-02T23:56:27.147Z,98746.25
2023-01-02T23:58:58.461Z,98753.44
